Etusivu
METAR-TAF:

METAR-TAF

Lentoasemat :

Fritzlar, Saksa

Leveyspiiri: 51-07N, Pituuspiiri: 009-17E, korkeus merenpinnasta: 172 m

Tämänhetkinen sää

Tämä raportti tehtiin 39 minuuttia sitten, kello 09.20 UTC
Tuuli 3 kn koillisesta
Lämpötila 17°C
Kosteus 34%
Ilmanpaine 1029 hPa
Näkyvyys 10 km tai enemmän
Muutamia pilviä 4800 ft:n korkeudessa

METAR: ETHF 290920Z 04003KT 9999 FEW048 17/01 Q1029 BLU+

Aika: 11:59 (09:59 UTC)

Sääennuste

Tämä raportti tehtiin 5 tuntia ja 47 minuuttia sitten, kello 04.12 UTC
Ennuste voimassa 29. päivästä klo 05 UTC - 29. päivään klo 14 UTC
Tuuli 5 kn pohjoisesta
Näkyvyys 10 km tai enemmän
Hajanaisia pilviä 30000 ft:n korkeudessa

TAF: ETHF 290412Z 2905/2914 35005KT 9999 NSW SCT300

Säähavainnot ja -ennusteet yli 4000 lentoasemalta (METAR- ja TAF-raportit).

Käytössä olevat sääasemat on merkitty karttaan keltaisilla ja punaisilla pisteillä.

Aseta hiiri pisteen päälle nähdäksesi sääaseman nimen.

Klikkaa sitten nähdäksesi säähavainnot ja -ennusteet.

Kartan vaihtaminen: klikkaa mustalla rastilla varustettuja vihreitä pisteitä, niin voit zoomata sisään; viivalla varustettua vihreää pistettä, niin voit zoomata ulos tai vihreitä nuolia, niin pääset viereisille kartoille.


METAR-TAF: